Time;durP1;ratioP1;P1;durP2;ratioP2;P2;SDS_P1;SDS_P2;PMS_P1;PMS_P2;Temp;Humidity;BMP_temperature;BMP_pressure;BME280_temperature;BME280_humidity;BME280_pressure;Samples;Min_cycle;Max_cycle;Signal;HPM_P1;HPM_P2
2024/02/14 00:00:16;;;;;;;2.03;1.55;;;1.50;99.90;;;;;;5010673;28;20231;-75
2024/02/14 00:02:44;;;;;;;2.65;2.42;;;1.50;99.90;;;;;;5010884;28;20230;-74
2024/02/14 00:05:11;;;;;;;3.67;2.63;;;1.50;99.90;;;;;;5006122;28;20210;-75
2024/02/14 00:07:39;;;;;;;2.13;1.67;;;1.60;99.90;;;;;;5011065;28;20206;-75
2024/02/14 00:10:06;;;;;;;2.30;1.70;;;1.60;99.90;;;;;;5010242;28;20206;-75
2024/02/14 00:12:33;;;;;;;2.00;1.73;;;1.70;99.90;;;;;;5011086;28;20214;-75
2024/02/14 00:15:00;;;;;;;2.55;2.33;;;1.80;99.90;;;;;;5010212;28;20203;-74
2024/02/14 00:17:28;;;;;;;4.35;2.20;;;1.90;99.90;;;;;;5010979;28;20202;-75
2024/02/14 00:19:55;;;;;;;3.17;2.65;;;2.10;99.90;;;;;;5009867;28;20601;-75
2024/02/14 00:22:22;;;;;;;5.43;2.28;;;2.20;99.90;;;;;;5010541;28;20214;-75
2024/02/14 00:24:49;;;;;;;3.22;2.15;;;2.40;99.90;;;;;;5010034;28;20209;-75
2024/02/14 00:27:17;;;;;;;2.92;1.95;;;2.60;99.90;;;;;;5011218;28;20206;-75
2024/02/14 00:29:45;;;;;;;2.50;2.30;;;2.70;99.90;;;;;;5009128;28;20214;-75
2024/02/14 00:32:12;;;;;;;3.60;2.72;;;2.90;99.90;;;;;;5003396;28;20712;-75
2024/02/14 00:34:40;;;;;;;3.20;2.40;;;3.00;99.90;;;;;;5011073;28;20222;-74
2024/02/14 00:37:07;;;;;;;3.00;2.60;;;3.10;99.90;;;;;;5012529;28;20226;-75
2024/02/14 00:39:34;;;;;;;2.97;2.08;;;3.20;99.90;;;;;;5014920;28;20309;-75
2024/02/14 00:42:00;;;;;;;3.15;2.45;;;3.30;99.90;;;;;;5014415;28;20583;-74
2024/02/14 00:44:27;;;;;;;2.85;2.38;;;3.40;99.90;;;;;;5014755;28;20230;-75
2024/02/14 00:46:57;;;;;;;2.03;1.80;;;3.50;99.90;;;;;;5014194;28;20225;-75
2024/02/14 00:49:24;;;;;;;3.90;2.13;;;3.60;99.90;;;;;;5014808;28;20207;-75
2024/02/14 00:51:52;;;;;;;3.05;2.25;;;3.60;99.90;;;;;;5014319;28;20203;-75
2024/02/14 00:54:19;;;;;;;4.88;2.20;;;3.70;99.90;;;;;;5014538;28;20229;-75
2024/02/14 00:56:46;;;;;;;3.00;1.90;;;3.80;99.90;;;;;;5014091;28;20237;-74
2024/02/14 00:59:12;;;;;;;4.25;2.50;;;3.80;99.90;;;;;;5014374;28;20281;-75
2024/02/14 01:01:39;;;;;;;4.43;2.35;;;3.90;99.90;;;;;;5014630;28;20226;-76
2024/02/14 01:04:07;;;;;;;2.67;2.00;;;3.90;99.90;;;;;;5013877;28;20229;-76
2024/02/14 01:06:33;;;;;;;3.42;2.00;;;4.00;99.90;;;;;;5014504;28;20951;-75
2024/02/14 01:09:03;;;;;;;4.10;2.30;;;4.00;99.90;;;;;;5013999;28;20215;-74
2024/02/14 01:11:30;;;;;;;2.33;2.03;;;4.00;99.90;;;;;;5014240;28;20623;-75
2024/02/14 01:13:56;;;;;;;2.22;1.95;;;4.00;99.90;;;;;;5013983;28;20250;-75
2024/02/14 01:16:25;;;;;;;2.85;1.98;;;4.00;99.90;;;;;;5014123;28;20207;-74
2024/02/14 01:18:52;;;;;;;5.93;2.70;;;4.00;99.90;;;;;;5013609;28;20207;-74
2024/02/14 01:21:18;;;;;;;2.13;1.90;;;4.10;99.90;;;;;;5013843;28;20223;-74
2024/02/14 01:23:45;;;;;;;2.83;1.75;;;4.10;99.90;;;;;;5013756;28;20249;-74
2024/02/14 01:26:14;;;;;;;2.40;1.95;;;4.20;99.90;;;;;;5013941;28;20215;-74
2024/02/14 01:28:43;;;;;;;2.42;2.15;;;4.30;99.90;;;;;;5013826;28;20217;-74
2024/02/14 01:31:11;;;;;;;2.72;1.77;;;4.30;99.90;;;;;;5005918;28;20204;-73
2024/02/14 01:33:40;;;;;;;2.70;2.10;;;4.30;99.90;;;;;;5013730;28;20250;-74
2024/02/14 01:36:07;;;;;;;3.42;1.73;;;4.30;99.90;;;;;;5013618;28;20395;-74
2024/02/14 01:38:35;;;;;;;2.10;1.90;;;4.30;99.90;;;;;;5013537;28;20210;-74
2024/02/14 01:41:03;;;;;;;2.70;2.30;;;4.30;99.90;;;;;;5013262;28;20238;-74
2024/02/14 01:43:31;;;;;;;2.20;1.70;;;4.30;99.90;;;;;;5013550;28;20231;-75
2024/02/14 01:46:05;;;;;;;2.75;2.38;;;4.30;99.90;;;;;;5013312;28;20265;-74
2024/02/14 01:48:33;;;;;;;2.88;1.70;;;4.30;99.90;;;;;;5013188;28;20212;-74
2024/02/14 01:51:01;;;;;;;2.60;1.95;;;4.40;99.90;;;;;;5013288;28;20230;-75
2024/02/14 01:53:30;;;;;;;3.33;1.83;;;4.40;99.90;;;;;;5013253;28;20601;-75
2024/02/14 01:55:57;;;;;;;2.08;1.80;;;4.50;99.90;;;;;;5013221;28;20301;-75
2024/02/14 01:58:24;;;;;;;4.07;2.20;;;4.50;99.90;;;;;;5013280;28;20211;-75
2024/02/14 02:00:56;;;;;;;2.63;2.25;;;4.50;99.90;;;;;;5013158;28;20254;-75
2024/02/14 02:03:23;;;;;;;5.57;2.10;;;4.50;99.90;;;;;;5013095;28;20233;-75
2024/02/14 02:05:50;;;;;;;2.55;1.92;;;4.60;99.90;;;;;;5012995;28;20267;-75
2024/02/14 02:08:17;;;;;;;3.13;1.88;;;4.60;99.90;;;;;;5012865;28;20208;-74
2024/02/14 02:10:44;;;;;;;2.30;2.05;;;4.60;99.90;;;;;;5012978;28;20214;-75
2024/02/14 02:13:11;;;;;;;3.70;1.40;;;4.60;99.90;;;;;;5012759;28;20238;-76
2024/02/14 02:15:37;;;;;;;2.90;2.03;;;4.70;99.90;;;;;;5013075;28;20209;-75
2024/02/14 02:18:06;;;;;;;2.58;2.20;;;4.70;99.90;;;;;;5012584;28;20274;-75
2024/02/14 02:20:33;;;;;;;1.92;1.83;;;4.60;99.90;;;;;;5012892;28;20264;-75
2024/02/14 02:23:01;;;;;;;2.47;1.65;;;4.60;99.90;;;;;;5012258;28;20624;-75
2024/02/14 02:25:28;;;;;;;3.50;2.05;;;4.60;99.90;;;;;;5012999;28;20222;-75
2024/02/14 02:27:56;;;;;;;1.90;1.80;;;4.60;99.90;;;;;;5012526;28;20574;-75
2024/02/14 02:30:23;;;;;;;4.20;2.10;;;4.60;99.90;;;;;;5012609;28;20205;-76
2024/02/14 02:32:51;;;;;;;2.92;2.50;;;4.70;99.90;;;;;;5012495;28;20615;-75
2024/02/14 02:35:19;;;;;;;3.10;2.42;;;4.70;99.90;;;;;;5012803;28;20631;-75
2024/02/14 02:37:47;;;;;;;2.17;1.98;;;4.70;99.90;;;;;;5012930;28;20698;-75
2024/02/14 02:40:16;;;;;;;2.47;2.28;;;4.70;99.90;;;;;;5012573;28;20239;-75
2024/02/14 02:42:45;;;;;;;1.50;1.40;;;4.70;99.90;;;;;;5012698;28;20308;-75
2024/02/14 02:45:11;;;;;;;4.43;3.10;;;4.60;99.90;;;;;;5011773;28;20348;-75
2024/02/14 02:47:39;;;;;;;2.85;2.22;;;4.60;99.90;;;;;;5012349;28;20701;-75
2024/02/14 02:50:07;;;;;;;2.60;2.40;;;4.50;99.90;;;;;;5012166;28;20239;-75
2024/02/14 02:52:34;;;;;;;1.60;1.50;;;4.50;99.90;;;;;;5012448;28;20220;-75
2024/02/14 02:55:01;;;;;;;2.63;1.90;;;4.50;99.90;;;;;;5012064;28;20200;-75
2024/02/14 02:57:31;;;;;;;2.20;1.70;;;4.50;99.90;;;;;;5012586;28;20211;-75
2024/02/14 02:59:58;;;;;;;2.00;1.50;;;4.50;99.90;;;;;;5012445;28;20209;-75
2024/02/14 03:02:26;;;;;;;2.17;1.98;;;4.50;99.90;;;;;;5012050;28;20722;-75
2024/02/14 03:04:53;;;;;;;2.17;1.98;;;4.50;99.90;;;;;;5012281;28;20291;-75
2024/02/14 03:07:20;;;;;;;2.65;1.95;;;4.50;99.90;;;;;;5012247;28;20208;-75
2024/02/14 03:09:47;;;;;;;3.08;2.38;;;4.40;99.90;;;;;;5012001;28;20205;-75
2024/02/14 03:12:16;;;;;;;3.30;2.40;;;4.40;99.90;;;;;;5011867;28;20204;-75
2024/02/14 03:14:44;;;;;;;2.78;2.08;;;4.40;99.90;;;;;;5012175;28;20282;-75
2024/02/14 03:17:11;;;;;;;3.03;1.98;;;4.40;99.90;;;;;;5010509;28;20671;-75
2024/02/14 03:19:38;;;;;;;5.93;2.85;;;4.40;99.90;;;;;;5011946;28;20672;-75
2024/02/14 03:22:08;;;;;;;2.47;2.13;;;4.40;99.90;;;;;;5011217;28;20227;-75
2024/02/14 03:24:36;;;;;;;4.05;2.20;;;4.30;99.90;;;;;;5011762;28;20719;-75
2024/02/14 03:27:04;;;;;;;2.80;1.80;;;4.40;99.90;;;;;;5011319;28;20619;-75
2024/02/14 03:29:31;;;;;;;5.65;2.28;;;4.40;99.90;;;;;;5011816;28;20363;-75
2024/02/14 03:32:03;;;;;;;3.10;2.80;;;4.40;99.90;;;;;;5011586;28;20205;-74
2024/02/14 03:34:33;;;;;;;3.95;3.58;;;4.40;99.90;;;;;;5011721;28;20598;-74
2024/02/14 03:37:01;;;;;;;4.40;2.42;;;4.30;99.90;;;;;;5011220;28;20238;-75
2024/02/14 03:39:26;;;;;;;2.55;1.80;;;4.20;99.90;;;;;;5011584;28;20228;-75
2024/02/14 03:41:54;;;;;;;3.57;2.40;;;4.10;99.90;;;;;;5011762;28;20302;-75
2024/02/14 03:44:21;;;;;;;4.53;2.50;;;4.10;99.90;;;;;;5011359;28;20223;-76
2024/02/14 03:46:48;;;;;;;3.55;2.30;;;4.00;99.90;;;;;;5011454;28;20208;-75
2024/02/14 03:49:16;;;;;;;1.70;1.60;;;4.00;99.90;;;;;;5011374;28;20213;-76
2024/02/14 03:51:43;;;;;;;2.33;2.13;;;3.90;99.90;;;;;;5011532;28;20625;-75
2024/02/14 03:54:11;;;;;;;2.15;1.95;;;3.90;99.90;;;;;;5009438;28;20236;-75
2024/02/14 03:56:38;;;;;;;2.40;2.17;;;3.90;99.90;;;;;;5011539;28;20689;-75
2024/02/14 03:59:07;;;;;;;4.05;2.38;;;3.90;99.90;;;;;;5011081;28;20294;-75
2024/02/14 04:01:34;;;;;;;2.38;1.80;;;3.90;99.90;;;;;;5011337;28;20226;-76
2024/02/14 04:04:01;;;;;;;2.85;1.70;;;3.90;99.90;;;;;;5010998;28;20222;-76
2024/02/14 04:06:31;;;;;;;1.75;1.42;;;3.90;99.90;;;;;;5010297;28;20203;-75
2024/02/14 04:08:58;;;;;;;5.13;1.90;;;3.90;99.90;;;;;;5011058;28;20210;-75
2024/02/14 04:11:25;;;;;;;2.13;1.45;;;4.00;99.90;;;;;;5006206;28;20275;-76
2024/02/14 04:13:52;;;;;;;1.55;1.45;;;4.00;99.90;;;;;;5015232;28;20222;-75
2024/02/14 04:16:21;;;;;;;2.15;1.95;;;3.90;99.90;;;;;;5014691;28;20219;-76
2024/02/14 04:18:47;;;;;;;3.80;1.70;;;4.00;99.90;;;;;;5014530;28;20284;-76
2024/02/14 04:21:14;;;;;;;4.32;1.95;;;3.90;99.90;;;;;;5014862;28;20247;-78
2024/02/14 04:23:42;;;;;;;4.28;2.03;;;4.00;99.90;;;;;;5015500;28;20219;-77
2024/02/14 04:26:09;;;;;;;2.20;2.00;;;4.00;99.90;;;;;;5014981;28;20203;-76
2024/02/14 04:28:35;;;;;;;1.90;1.70;;;3.90;99.90;;;;;;5014606;28;20208;-76
2024/02/14 04:31:02;;;;;;;6.05;1.58;;;3.90;99.90;;;;;;5014162;28;20212;-76
2024/02/14 04:33:30;;;;;;;2.10;1.80;;;3.80;99.90;;;;;;5014334;28;20222;-76
2024/02/14 04:35:56;;;;;;;2.45;2.17;;;3.80;99.90;;;;;;5014439;28;20212;-76
2024/02/14 04:38:23;;;;;;;2.15;1.95;;;3.70;99.90;;;;;;5014248;28;20203;-76
2024/02/14 04:40:52;;;;;;;4.38;1.90;;;3.70;99.90;;;;;;5014433;28;20211;-75
2024/02/14 04:43:19;;;;;;;2.05;1.80;;;3.60;99.90;;;;;;5013182;28;20219;-76
2024/02/14 04:45:46;;;;;;;2.75;2.05;;;3.60;99.90;;;;;;5014225;28;20252;-76
2024/02/14 04:48:13;;;;;;;2.22;1.92;;;3.50;99.90;;;;;;5014115;28;20242;-76
2024/02/14 04:50:40;;;;;;;1.90;1.70;;;3.50;99.90;;;;;;5011867;28;20399;-76
2024/02/14 04:53:06;;;;;;;3.17;1.95;;;3.50;99.90;;;;;;5013832;28;20223;-76
2024/02/14 04:55:33;;;;;;;2.03;1.77;;;3.50;99.90;;;;;;5014605;28;20681;-77
2024/02/14 04:58:01;;;;;;;2.70;2.17;;;3.50;99.90;;;;;;5014198;28;20237;-77
2024/02/14 05:00:28;;;;;;;3.53;2.97;;;3.50;99.90;;;;;;5013932;28;20256;-77
2024/02/14 05:02:55;;;;;;;2.92;1.95;;;3.60;99.90;;;;;;5014080;28;20278;-76
2024/02/14 05:05:22;;;;;;;2.92;2.10;;;3.60;99.90;;;;;;5014097;28;20208;-77
2024/02/14 05:07:48;;;;;;;2.73;2.27;;;3.70;99.90;;;;;;5013459;28;20874;-75
2024/02/14 05:10:15;;;;;;;1.90;1.45;;;3.70;99.90;;;;;;5013635;28;20550;-74
2024/02/14 05:12:42;;;;;;;4.55;2.03;;;3.80;99.90;;;;;;5014204;28;20221;-74
2024/02/14 05:15:12;;;;;;;2.08;1.75;;;3.90;99.90;;;;;;5013562;28;20685;-74
2024/02/14 05:17:38;;;;;;;2.35;1.77;;;4.00;99.90;;;;;;5010879;28;20203;-75
2024/02/14 05:20:08;;;;;;;1.60;1.35;;;4.00;99.90;;;;;;5013969;28;20227;-75
2024/02/14 05:22:37;;;;;;;2.58;1.30;;;4.10;99.90;;;;;;5008187;28;20277;-75
2024/02/14 05:25:04;;;;;;;1.48;1.38;;;4.40;99.90;;;;;;5013260;28;20212;-75
2024/02/14 05:27:30;;;;;;;1.50;1.40;;;4.50;99.90;;;;;;5014305;28;20213;-74
2024/02/14 05:29:57;;;;;;;3.38;1.30;;;4.60;99.90;;;;;;5013733;28;20692;-74
2024/02/14 05:32:25;;;;;;;3.80;1.70;;;4.80;99.90;;;;;;5013543;28;20215;-75
2024/02/14 05:34:52;;;;;;;3.58;1.60;;;4.90;99.90;;;;;;5013820;28;20234;-74
2024/02/14 05:37:19;;;;;;;1.92;1.73;;;4.90;99.90;;;;;;5013475;28;20209;-75
2024/02/14 05:39:46;;;;;;;2.90;1.50;;;5.00;99.90;;;;;;5013494;28;20203;-75
2024/02/14 05:42:13;;;;;;;2.25;1.40;;;5.00;99.90;;;;;;5013464;28;20600;-74
2024/02/14 05:44:40;;;;;;;2.47;1.25;;;5.10;99.90;;;;;;5013691;28;20237;-75
2024/02/14 05:47:07;;;;;;;1.30;1.17;;;5.10;99.90;;;;;;5013307;28;20208;-74
2024/02/14 05:49:35;;;;;;;5.78;1.75;;;5.10;99.90;;;;;;5013705;28;20209;-74
2024/02/14 05:52:01;;;;;;;2.85;1.60;;;5.20;99.90;;;;;;5013444;28;20207;-74
2024/02/14 05:54:28;;;;;;;2.42;1.50;;;5.20;99.90;;;;;;5013229;28;20727;-74
2024/02/14 05:56:57;;;;;;;4.13;1.90;;;5.20;99.90;;;;;;5013113;28;20247;-74
2024/02/14 05:59:24;;;;;;;1.77;1.30;;;5.20;99.90;;;;;;5013202;28;20209;-74
2024/02/14 06:01:51;;;;;;;1.55;1.25;;;5.20;99.90;;;;;;5013179;28;20580;-75
2024/02/14 06:04:17;;;;;;;3.53;1.77;;;5.20;99.90;;;;;;5013088;28;20225;-74
2024/02/14 06:06:45;;;;;;;3.00;1.40;;;5.20;99.90;;;;;;5012866;28;20207;-74
2024/02/14 06:09:12;;;;;;;3.22;1.70;;;5.20;99.90;;;;;;5009873;28;20256;-74
2024/02/14 06:11:39;;;;;;;3.45;1.35;;;5.20;99.90;;;;;;5012970;28;20197;-75
2024/02/14 06:14:06;;;;;;;1.60;1.30;;;5.20;99.90;;;;;;5012861;28;20228;-74
2024/02/14 06:16:33;;;;;;;1.95;1.75;;;5.20;99.90;;;;;;5012732;28;20312;-75
2024/02/14 06:19:00;;;;;;;4.13;1.20;;;5.20;99.90;;;;;;5012589;28;20209;-73
2024/02/14 06:21:27;;;;;;;1.58;1.48;;;5.20;99.90;;;;;;5012561;28;20216;-74
2024/02/14 06:23:55;;;;;;;1.50;1.40;;;5.20;99.90;;;;;;5012608;28;20225;-73
2024/02/14 06:26:22;;;;;;;2.25;1.40;;;5.20;99.90;;;;;;5012663;28;20213;-74
2024/02/14 06:28:54;;;;;;;1.13;1.00;;;5.30;99.90;;;;;;5012964;28;20693;-74
2024/02/14 06:31:20;;;;;;;1.85;1.63;;;5.30;99.90;;;;;;5012754;28;20586;-74
2024/02/14 06:33:47;;;;;;;2.03;1.63;;;5.40;99.90;;;;;;5011550;28;20233;-74
2024/02/14 06:36:14;;;;;;;3.72;3.42;;;5.40;99.90;;;;;;5012345;28;20220;-75
2024/02/14 06:41:10;;;;;;;2.17;1.35;;;5.40;99.90;;;;;;5050746;28;20217;-74
2024/02/14 06:43:39;;;;;;;3.47;1.42;;;5.40;99.90;;;;;;5051757;28;20230;-74
2024/02/14 06:46:05;;;;;;;1.75;1.40;;;5.50;99.90;;;;;;5050672;28;20198;-74
2024/02/14 06:48:32;;;;;;;1.42;1.08;;;5.50;99.90;;;;;;5051380;28;20684;-74
2024/02/14 06:50:59;;;;;;;1.23;1.13;;;5.50;99.90;;;;;;5051961;28;20204;-74
2024/02/14 06:53:26;;;;;;;2.63;1.85;;;5.60;99.90;;;;;;5051496;28;20328;-73
2024/02/14 06:55:52;;;;;;;2.30;1.83;;;5.60;99.90;;;;;;5052127;28;20204;-73
2024/02/14 06:58:20;;;;;;;4.22;1.30;;;5.60;99.90;;;;;;5051425;28;20212;-73
2024/02/14 07:00:47;;;;;;;1.98;1.63;;;5.50;99.90;;;;;;5051537;28;20211;-74
2024/02/14 07:03:14;;;;;;;1.50;1.25;;;5.50;99.90;;;;;;5051381;28;20302;-75
2024/02/14 07:05:41;;;;;;;1.45;1.30;;;5.60;99.90;;;;;;5051763;28;20203;-74
2024/02/14 07:08:08;;;;;;;1.65;1.40;;;5.60;99.90;;;;;;5051230;28;20227;-75
2024/02/14 07:10:35;;;;;;;2.70;1.20;;;5.60;99.90;;;;;;5051672;28;20219;-76
2024/02/14 07:13:02;;;;;;;4.63;1.40;;;5.60;99.90;;;;;;5051334;28;20601;-75
2024/02/14 07:15:30;;;;;;;2.03;1.25;;;5.60;99.90;;;;;;5051139;28;20219;-73
2024/02/14 07:17:58;;;;;;;1.60;1.15;;;5.60;99.90;;;;;;5051210;28;20207;-75
2024/02/14 07:20:26;;;;;;;1.13;1.00;;;5.70;99.90;;;;;;5051223;28;20204;-75
2024/02/14 07:22:53;;;;;;;0.95;0.88;;;5.70;99.90;;;;;;5051249;28;20578;-75
2024/02/14 07:25:20;;;;;;;3.03;1.52;;;5.80;99.90;;;;;;5051202;28;20202;-73
2024/02/14 07:27:49;;;;;;;1.65;1.33;;;5.90;99.90;;;;;;5051083;28;20204;-75
2024/02/14 07:30:16;;;;;;;2.90;1.27;;;5.90;99.90;;;;;;5051176;28;20215;-75
2024/02/14 07:32:44;;;;;;;1.38;1.23;;;6.00;99.90;;;;;;5050945;28;20224;-73
2024/02/14 07:35:11;;;;;;;1.60;1.50;;;6.00;99.90;;;;;;5046762;28;20652;-74
2024/02/14 07:37:38;;;;;;;1.83;1.30;;;6.10;99.90;;;;;;5050924;28;20208;-73
2024/02/14 07:40:06;;;;;;;2.05;1.15;;;6.20;99.90;;;;;;5050966;28;20215;-73
2024/02/14 07:42:32;;;;;;;1.20;1.00;;;6.20;99.90;;;;;;5050586;28;20277;-73
2024/02/14 07:44:59;;;;;;;1.00;0.90;;;6.30;99.90;;;;;;5050739;28;20211;-74
2024/02/14 07:47:26;;;;;;;1.85;1.20;;;6.40;99.90;;;;;;5050676;28;20211;-74
2024/02/14 07:49:54;;;;;;;1.60;1.15;;;6.50;99.90;;;;;;5050990;28;20215;-74
2024/02/14 07:52:21;;;;;;;9.02;1.75;;;6.70;99.90;;;;;;5048408;28;20206;-74
2024/02/14 07:54:47;;;;;;;2.75;1.15;;;6.80;99.90;;;;;;5050662;28;20208;-73
2024/02/14 07:57:14;;;;;;;1.35;1.10;;;7.00;99.90;;;;;;5050811;28;20594;-74
2024/02/14 07:59:41;;;;;;;1.23;1.08;;;7.20;99.90;;;;;;5050878;28;20212;-74
2024/02/14 08:02:07;;;;;;;1.30;1.20;;;7.30;99.90;;;;;;5050635;28;20232;-73
2024/02/14 08:04:34;;;;;;;1.45;1.23;;;7.40;99.90;;;;;;5050584;28;20718;-73
2024/02/14 08:07:02;;;;;;;3.35;1.70;;;7.50;99.90;;;;;;5050741;28;20563;-74
2024/02/14 08:09:30;;;;;;;2.35;1.13;;;7.60;99.90;;;;;;5050631;28;20206;-73
2024/02/14 08:11:56;;;;;;;3.35;1.55;;;7.60;99.90;;;;;;5050923;28;20205;-74
2024/02/14 08:14:23;;;;;;;1.60;1.30;;;7.60;99.90;;;;;;5050537;28;20229;-73
2024/02/14 08:16:51;;;;;;;3.25;1.95;;;7.70;99.90;;;;;;5050580;28;20591;-74
2024/02/14 08:19:18;;;;;;;1.45;1.25;;;7.70;99.90;;;;;;5050740;28;20239;-74
2024/02/14 08:21:45;;;;;;;1.35;1.25;;;7.80;99.90;;;;;;5050644;28;20288;-74
2024/02/14 08:24:13;;;;;;;2.78;1.30;;;7.80;99.90;;;;;;5050428;28;20225;-75
2024/02/14 08:26:40;;;;;;;1.02;0.93;;;7.80;99.90;;;;;;5050536;28;20220;-75
2024/02/14 08:29:06;;;;;;;2.58;1.13;;;7.90;99.90;;;;;;5050503;28;20208;-73
2024/02/14 08:31:34;;;;;;;1.15;1.05;;;8.00;99.90;;;;;;5050240;28;20217;-73
2024/02/14 08:34:01;;;;;;;1.65;1.08;;;8.00;99.90;;;;;;5050386;28;20248;-74
2024/02/14 08:36:28;;;;;;;1.15;1.05;;;8.10;99.90;;;;;;5050409;28;20209;-73
2024/02/14 08:38:54;;;;;;;1.20;1.10;;;8.20;99.90;;;;;;5050096;28;20205;-73
2024/02/14 08:41:23;;;;;;;5.85;1.20;;;8.30;99.90;;;;;;5050595;28;20202;-73
2024/02/14 08:43:50;;;;;;;1.25;1.05;;;8.50;99.90;;;;;;5050003;28;20225;-74
2024/02/14 08:46:18;;;;;;;2.00;1.15;;;8.80;99.90;;;;;;5050491;28;20244;-74
2024/02/14 08:48:46;;;;;;;3.88;1.25;;;9.00;99.90;;;;;;5050012;28;20220;-73
2024/02/14 08:51:13;;;;;;;1.20;1.10;;;9.10;99.90;;;;;;5050453;28;20220;-73
2024/02/14 08:53:41;;;;;;;2.47;1.38;;;9.00;99.90;;;;;;5050164;28;20283;-74
2024/02/14 08:56:09;;;;;;;2.15;1.20;;;8.80;99.90;;;;;;5050367;28;20203;-74
2024/02/14 08:58:37;;;;;;;1.65;1.55;;;8.80;99.90;;;;;;5052777;28;20301;-73
2024/02/14 09:01:03;;;;;;;3.83;1.40;;;8.70;99.90;;;;;;5053958;28;20209;-73
2024/02/14 09:03:31;;;;;;;3.38;1.45;;;8.70;99.90;;;;;;5053639;28;20232;-74
2024/02/14 09:05:57;;;;;;;2.33;1.33;;;8.70;99.90;;;;;;5053834;28;20206;-74
2024/02/14 09:08:24;;;;;;;1.30;1.10;;;8.60;99.90;;;;;;5053625;28;20744;-74
2024/02/14 09:10:51;;;;;;;2.10;1.50;;;8.70;99.90;;;;;;5053559;28;20202;-74
2024/02/14 09:13:18;;;;;;;2.00;1.35;;;8.70;99.90;;;;;;5053663;28;20599;-74
2024/02/14 09:15:48;;;;;;;1.38;1.15;;;8.70;99.90;;;;;;5053586;28;20622;-73
2024/02/14 09:18:17;;;;;;;2.63;1.10;;;8.70;99.90;;;;;;5053617;28;20206;-75
2024/02/14 09:20:46;;;;;;;2.40;1.50;;;8.70;99.90;;;;;;5053499;28;20296;-72
2024/02/14 09:23:13;;;;;;;5.57;1.35;;;8.70;99.90;;;;;;5047677;28;20226;-72
2024/02/14 09:25:40;;;;;;;1.30;1.15;;;8.80;99.90;;;;;;5053397;28;20216;-72
2024/02/14 09:28:07;;;;;;;1.55;1.25;;;8.90;99.90;;;;;;5053163;28;20702;-72
2024/02/14 09:30:33;;;;;;;2.10;1.20;;;8.90;99.90;;;;;;5053902;28;20227;-74
2024/02/14 09:33:01;;;;;;;1.40;1.30;;;9.00;99.90;;;;;;5053354;28;20220;-74
2024/02/14 09:35:28;;;;;;;1.90;1.52;;;9.10;99.90;;;;;;5053590;28;20201;-74
2024/02/14 09:37:55;;;;;;;1.23;1.13;;;9.20;99.90;;;;;;5052879;28;20202;-74
2024/02/14 09:40:21;;;;;;;2.88;1.10;;;9.30;99.90;;;;;;5053418;28;20246;-74
2024/02/14 09:42:54;;;;;;;1.30;0.98;;;9.40;99.90;;;;;;5052658;28;20225;-74
2024/02/14 09:45:21;;;;;;;2.05;1.48;;;9.50;99.90;;;;;;5053829;28;20213;-73
2024/02/14 09:47:48;;;;;;;1.73;1.20;;;9.70;99.90;;;;;;5052779;28;20203;-74
2024/02/14 09:50:17;;;;;;;5.00;1.70;;;9.90;99.90;;;;;;5053130;28;20679;-74
2024/02/14 09:52:45;;;;;;;1.35;1.20;;;9.90;99.90;;;;;;5052795;28;20619;-76
2024/02/14 09:55:12;;;;;;;1.95;1.35;;;10.10;99.90;;;;;;5046870;28;20678;-74
2024/02/14 09:57:42;;;;;;;1.75;1.33;;;10.40;99.90;;;;;;5052551;28;20208;-73
2024/02/14 10:00:11;;;;;;;1.55;1.25;;;10.60;99.90;;;;;;5052942;28;20656;-75
2024/02/14 10:02:37;;;;;;;1.58;1.20;;;11.10;99.90;;;;;;5052575;28;20239;-74
2024/02/14 10:05:05;;;;;;;2.10;1.35;;;11.50;99.90;;;;;;5052766;28;20208;-74
2024/02/14 10:07:40;;;;;;;2.15;1.17;;;11.70;99.90;;;;;;5052729;28;20209;-75
2024/02/14 10:10:08;;;;;;;4.22;1.40;;;12.30;99.90;;;;;;5052610;28;20219;-74
2024/02/14 10:12:34;;;;;;;1.20;0.85;;;12.80;99.90;;;;;;5052775;28;20582;-74
2024/02/14 10:15:02;;;;;;;1.83;1.10;;;13.00;99.90;;;;;;5052674;28;20209;-75
2024/02/14 10:17:29;;;;;;;1.75;1.13;;;12.90;99.90;;;;;;5052608;28;20224;-74
2024/02/14 10:19:59;;;;;;;2.25;1.27;;;12.70;99.90;;;;;;5052250;28;20205;-76
2024/02/14 10:22:32;;;;;;;1.05;0.95;;;12.90;99.90;;;;;;5052367;28;20212;-76
2024/02/14 10:25:00;;;;;;;1.98;1.67;;;13.10;99.90;;;;;;5052125;28;20197;-71
2024/02/14 10:27:27;;;;;;;1.58;1.05;;;13.40;99.90;;;;;;5052246;28;20201;-72
2024/02/14 10:29:57;;;;;;;1.33;1.10;;;14.20;99.90;;;;;;5052048;28;20201;-73
2024/02/14 10:32:24;;;;;;;1.77;1.50;;;15.40;99.90;;;;;;5052101;28;20976;-74
2024/02/14 10:34:51;;;;;;;0.93;0.83;;;16.30;99.90;;;;;;5051946;28;20462;-75
2024/02/14 10:37:21;;;;;;;1.23;1.10;;;17.70;99.90;;;;;;5052158;28;20841;-74
2024/02/14 10:39:52;;;;;;;1.80;1.10;;;18.70;99.90;;;;;;5051799;28;20470;-72
2024/02/14 10:42:20;;;;;;;1.87;1.27;;;19.40;99.90;;;;;;5052125;28;20948;-74
2024/02/14 10:44:49;;;;;;;1.00;0.83;;;19.40;99.90;;;;;;5052062;28;20479;-74
2024/02/14 10:47:20;;;;;;;1.00;0.90;;;18.80;99.90;;;;;;5051973;28;20456;-74
2024/02/14 10:49:47;;;;;;;1.40;0.90;;;18.40;99.90;;;;;;5051729;28;20459;-74
2024/02/14 10:52:17;;;;;;;1.80;1.17;;;18.60;99.90;;;;;;5051851;28;20467;-72
2024/02/14 10:54:48;;;;;;;1.57;1.30;;;18.80;99.90;;;;;;5051760;28;20463;-72
2024/02/14 10:57:18;;;;;;;1.23;0.90;;;18.30;99.90;;;;;;5045229;28;20459;-73
2024/02/14 10:59:48;;;;;;;1.47;1.00;;;18.00;99.90;;;;;;5051840;28;20460;-73
2024/02/14 11:02:16;;;;;;;1.20;1.00;;;18.20;99.90;;;;;;5045250;28;20525;-74
2024/02/14 11:04:46;;;;;;;1.13;1.03;;;18.20;99.90;;;;;;5051571;28;20487;-72
2024/02/14 11:07:13;;;;;;;1.77;1.10;;;17.10;99.90;;;;;;5044497;28;20455;-73
2024/02/14 11:09:41;;;;;;;1.20;1.00;;;16.60;99.90;;;;;;5051512;28;20459;-74
2024/02/14 11:12:09;;;;;;;1.20;1.10;;;16.40;99.90;;;;;;5053876;28;20494;-73
2024/02/14 11:14:36;;;;;;;1.00;0.90;;;16.20;99.90;;;;;;5052795;28;20476;-74
2024/02/14 11:17:04;;;;;;;1.00;0.90;;;15.90;99.90;;;;;;5051018;28;20467;-73
2024/02/14 11:19:33;;;;;;;3.13;1.17;;;15.50;99.90;;;;;;5051645;28;20542;-74
2024/02/14 11:22:01;;;;;;;2.50;1.10;;;15.10;99.90;;;;;;5051095;28;20467;-74
2024/02/14 11:24:30;;;;;;;1.27;1.17;;;14.50;99.90;;;;;;5051243;28;20866;-73
2024/02/14 11:26:57;;;;;;;1.20;1.10;;;14.00;99.90;;;;;;5051295;28;20467;-72
2024/02/14 11:29:30;;;;;;;1.80;0.97;;;13.60;99.90;;;;;;5051288;28;20468;-72
2024/02/14 11:32:01;;;;;;;1.67;1.13;;;13.30;99.90;;;;;;5050893;28;20517;-72
2024/02/14 11:34:32;;;;;;;1.23;1.00;;;13.10;99.90;;;;;;5051285;28;20475;-72
2024/02/14 11:36:59;;;;;;;2.43;1.73;;;13.00;99.90;;;;;;5051211;28;20891;-73
2024/02/14 11:39:26;;;;;;;1.77;1.07;;;12.90;99.90;;;;;;5051037;28;20467;-73
2024/02/14 11:41:53;;;;;;;1.30;1.00;;;12.80;99.90;;;;;;5050792;28;20475;-72
2024/02/14 11:44:21;;;;;;;1.03;0.93;;;12.70;99.90;;;;;;5050821;28;20221;-72
2024/02/14 11:46:48;;;;;;;0.90;0.80;;;12.60;99.90;;;;;;5050698;28;20492;-72
2024/02/14 11:49:16;;;;;;;0.90;0.70;;;12.60;99.90;;;;;;5051053;28;20766;-74
2024/02/14 11:51:44;;;;;;;1.45;1.00;;;12.60;99.90;;;;;;5050896;28;20497;-74
2024/02/14 11:54:11;;;;;;;1.08;0.90;;;12.70;99.90;;;;;;5042854;28;20231;-74
2024/02/14 11:56:39;;;;;;;1.20;1.08;;;12.80;99.90;;;;;;5050922;28;20683;-73
2024/02/14 11:59:07;;;;;;;2.60;0.95;;;13.00;99.90;;;;;;5050344;28;20581;-73
2024/02/14 12:01:36;;;;;;;1.90;1.00;;;13.40;99.90;;;;;;5050831;28;20216;-73
2024/02/14 12:04:05;;;;;;;1.67;1.10;;;14.00;99.90;;;;;;5050382;28;20498;-74
2024/02/14 12:06:34;;;;;;;1.30;1.20;;;14.60;99.90;;;;;;5050973;28;20498;-74
2024/02/14 12:09:05;;;;;;;1.20;1.10;;;15.30;99.90;;;;;;5050333;28;20466;-74
2024/02/14 12:11:32;;;;;;;1.03;0.93;;;16.10;99.90;;;;;;5050845;28;20482;-75
2024/02/14 12:14:02;;;;;;;1.90;1.20;;;17.40;99.90;;;;;;5050453;28;20525;-74
2024/02/14 12:16:29;;;;;;;1.20;1.10;;;18.90;99.90;;;;;;5050978;28;20564;-75
2024/02/14 12:19:08;;;;;;;0.90;0.70;;;20.00;99.90;;;;;;5050092;28;20508;-75
2024/02/14 12:21:35;;;;;;;1.00;0.90;;;20.50;99.90;;;;;;5050686;28;20491;-75
2024/02/14 12:24:04;;;;;;;1.20;0.90;;;21.00;99.90;;;;;;5050302;28;20537;-75
2024/02/14 12:26:32;;;;;;;1.10;1.00;;;21.20;99.90;;;;;;5050659;28;20463;-74
2024/02/14 12:28:58;;;;;;;1.53;1.00;;;20.40;99.90;;;;;;5044142;28;20528;-74
2024/02/14 12:31:25;;;;;;;1.00;0.90;;;19.20;99.90;;;;;;5049966;28;20463;-75
2024/02/14 12:33:55;;;;;;;1.17;0.83;;;18.20;99.90;;;;;;5053111;28;20479;-75
2024/02/14 12:36:23;;;;;;;1.00;0.80;;;17.40;99.90;;;;;;5051663;28;20884;-75
2024/02/14 12:38:52;;;;;;;0.83;0.73;;;16.80;99.90;;;;;;5053121;28;20463;-74
2024/02/14 12:41:23;;;;;;;1.73;0.93;;;16.70;99.90;;;;;;5054491;28;20463;-75
2024/02/14 12:43:50;;;;;;;1.10;1.00;;;16.30;99.90;;;;;;5053925;28;20498;-74
2024/02/14 12:46:18;;;;;;;1.10;1.00;;;16.20;99.90;;;;;;5054701;28;20521;-74
2024/02/14 12:48:47;;;;;;;2.37;1.10;;;16.50;99.90;;;;;;5053523;28;20460;-75
2024/02/14 12:51:17;;;;;;;0.90;0.80;;;16.50;99.90;;;;;;5046642;28;20507;-75
2024/02/14 12:53:43;;;;;;;1.00;0.83;;;17.30;99.90;;;;;;5053659;28;20485;-74
2024/02/14 12:56:10;;;;;;;1.20;1.00;;;19.00;99.90;;;;;;5053880;28;20467;-75
2024/02/14 12:58:38;;;;;;;1.27;0.90;;;20.50;99.90;;;;;;5053590;28;20460;-74